Quick Links (Output Below):   Max & Min Temps   /   Climate Reports   /   Zone Forecasts
River Forecasts   /   Forestry Forecasts   /   Aviation Forecasts   /   Radars   /   Features

Terminal Aerodrome Forecast (Highfill)

Pick a Site:
Arkadelphia | El Dorado | Fayetteville | Fort Smith | Harrison | Highfill | Hot Springs | Jonesboro
Little Rock | Monticello | Mountain Home | Pine Bluff | Texarkana
 Forecast 

KXNA 242328Z 2500/2524 18006KT P6SM BKN250
     FM250200 16004KT P6SM BKN250
     FM251500 19010KT P6SM SCT250=


 Latest METARs (Observations) 
How to Decode METARs
04Z KXNA 250353Z 24009KT 10SM FEW050 26/23 A3004 RMK AO2 LTG DSNT W
         AND NW SLP154 T02610228
         
03Z KXNA 250253Z 11004KT 10SM OVC055 28/23 A3002 RMK AO2 LTG DSNT SW
         SLP147 T02780233 53005
         
02Z KXNA 250153Z 17003KT 10SM CLR 29/23 A3000 RMK AO2 SLP142
         T02890233
         
01Z KXNA 250053Z 18003KT 10SM FEW050 30/23 A3001 RMK AO2 SLP143
         T03000228
         
00Z KXNA 242353Z 22003KT 10SM CLR 31/23 A3000 RMK AO2 LTG DSNT NE
         SLP142 T03060233 10344 20306 56010
         
***** Today's Observations (Above) *****


23Z KXNA 242253Z 18006KT 10SM SCT047 33/22 A3000 RMK AO2 SLP142
         T03330222
         
22Z KXNA 242153Z 20006KT 10SM FEW048 33/22 A3001 RMK AO2 SLP146
         T03330222
         
21Z KXNA 242053Z 18009KT 10SM FEW048 33/22 A3003 RMK AO2 SLP151
         T03330222 58014
         
20Z KXNA 241953Z 22006KT 10SM FEW095 33/22 A3005 RMK AO2 SLP158
         T03280222
         
19Z KXNA 241853Z VRB05KT 10SM CLR 33/22 A3006 RMK AO2 SLP162
         T03280222
         
***** Yesterday's Observations (Above) *****


Back to Main Page
http://www.srh.noaa.gov/lzk/qfcst.php

USA.gov is the U.S. government's official web portal to all federal, state and local government web resources and services.